Time;durP1;ratioP1;P1;durP2;ratioP2;P2;SDS_P1;SDS_P2;PMS_P1;PMS_P2;Temp;Humidity;BMP_temperature;BMP_pressure;BME280_temperature;BME280_humidity;BME280_pressure;Samples;Min_cycle;Max_cycle;Signal;HPM_P1;HPM_P2
2021/04/21 00:02:13;;;;;;;7.57;6.53;;;;;;;;;;5041781;28;20227;-78
2021/04/21 00:04:42;;;;;;;7.77;6.80;;;;;;;;;;5034715;28;20224;-78
2021/04/21 00:07:09;;;;;;;8.23;7.30;;;;;;;;;;5041537;28;20648;-79
2021/04/21 00:09:38;;;;;;;9.20;7.23;;;;;;;;;;5038507;28;20220;-77
2021/04/21 00:12:07;;;;;;;7.70;6.87;;;;;;;;;;5021759;28;20216;-77
2021/04/21 00:14:35;;;;;;;11.10;7.20;;;;;;;;;;5041335;28;20242;-78
2021/04/21 00:17:03;;;;;;;10.00;6.87;;;;;;;;;;5033553;28;20222;-79
2021/04/21 00:19:34;;;;;;;11.00;7.40;;;;;;;;;;5021152;28;20701;-78
2021/04/21 00:22:03;;;;;;;7.70;6.90;;;;;;;;;;5014132;28;20229;-76
2021/04/21 00:24:32;;;;;;;9.27;7.10;;;;;;;;;;5020877;28;20228;-78
2021/04/21 00:27:11;;;;;;;7.37;6.63;;;;;;;;;;5019173;28;20230;-77
2021/04/21 00:29:41;;;;;;;7.57;6.83;;;;;;;;;;5028729;28;20223;-77
2021/04/21 00:32:09;;;;;;;9.17;6.97;;;;;;;;;;5040347;28;20228;-79
2021/04/21 00:34:38;;;;;;;8.87;6.47;;;;;;;;;;5018965;28;20231;-78
2021/04/21 00:37:06;;;;;;;8.67;6.27;;;;;;;;;;5041315;28;20229;-78
2021/04/21 00:39:35;;;;;;;7.17;6.47;;;;;;;;;;5031961;28;20221;-77
2021/04/21 00:42:06;;;;;;;9.60;7.17;;;;;;;;;;5025485;28;20713;-78
2021/04/21 00:44:41;;;;;;;7.37;6.67;;;;;;;;;;5048709;28;20609;-78
2021/04/21 00:47:14;;;;;;;11.20;7.10;;;;;;;;;;5025132;28;20227;-80
2021/04/21 00:49:47;;;;;;;10.37;7.77;;;;;;;;;;5037828;28;20235;-77
2021/04/21 00:52:18;;;;;;;7.40;6.43;;;;;;;;;;5037635;28;20247;-77
2021/04/21 00:54:52;;;;;;;8.00;6.50;;;;;;;;;;5052621;28;20246;-78
2021/04/21 00:57:23;;;;;;;7.47;6.57;;;;;;;;;;5032440;28;20231;-78
2021/04/21 00:59:59;;;;;;;8.63;6.73;;;;;;;;;;5032565;28;20223;-81
2021/04/21 01:02:33;;;;;;;7.57;6.73;;;;;;;;;;5010112;28;20239;-78
2021/04/21 01:05:07;;;;;;;8.73;7.27;;;;;;;;;;5034874;28;20595;-77
2021/04/21 01:07:35;;;;;;;7.97;6.20;;;;;;;;;;5020841;28;20244;-78
2021/04/21 01:10:04;;;;;;;7.60;6.80;;;;;;;;;;5040775;28;20235;-78
2021/04/21 01:12:34;;;;;;;10.30;6.63;;;;;;;;;;5023506;28;20231;-78
2021/04/21 01:15:04;;;;;;;7.30;6.30;;;;;;;;;;5022248;28;20234;-77
2021/04/21 01:17:34;;;;;;;8.50;6.73;;;;;;;;;;5022254;28;20223;-77
2021/04/21 01:20:10;;;;;;;7.60;6.80;;;;;;;;;;5031389;28;20223;-77
2021/04/21 01:22:51;;;;;;;8.90;6.67;;;;;;;;;;5025443;28;20240;-79
2021/04/21 01:25:23;;;;;;;8.00;6.57;;;;;;;;;;5064255;28;20219;-79
2021/04/21 01:27:59;;;;;;;6.87;5.93;;;;;;;;;;5037741;28;20211;-79
2021/04/21 01:30:29;;;;;;;10.10;6.63;;;;;;;;;;5052136;28;20241;-79
2021/04/21 01:32:59;;;;;;;7.93;7.13;;;;;;;;;;5048982;28;20232;-78
2021/04/21 01:35:27;;;;;;;7.73;6.67;;;;;;;;;;5035149;28;20238;-77
2021/04/21 01:37:58;;;;;;;7.60;6.90;;;;;;;;;;5035562;28;20216;-77
2021/04/21 01:40:27;;;;;;;6.93;6.13;;;;;;;;;;5038215;28;20260;-78
2021/04/21 01:42:59;;;;;;;8.13;6.93;;;;;;;;;;5032463;28;20224;-78
2021/04/21 01:45:30;;;;;;;9.40;6.40;;;;;;;;;;5039047;28;20584;-77
2021/04/21 01:47:59;;;;;;;7.40;6.70;;;;;;;;;;5038003;28;20796;-80
2021/04/21 01:50:27;;;;;;;7.37;6.67;;;;;;;;;;5024235;28;20645;-78
2021/04/21 01:52:59;;;;;;;7.80;6.87;;;;;;;;;;5033895;28;20698;-77
2021/04/21 01:55:34;;;;;;;7.90;6.67;;;;;;;;;;5045893;28;20235;-79
2021/04/21 01:58:12;;;;;;;8.40;7.10;;;;;;;;;;5025446;28;20227;-78
2021/04/21 02:00:44;;;;;;;7.37;6.67;;;;;;;;;;5023634;28;20260;-77
2021/04/21 02:03:16;;;;;;;8.93;6.60;;;;;;;;;;5021832;28;20219;-77
2021/04/21 02:06:07;;;;;;;7.37;6.67;;;;;;;;;;5024059;28;20224;-77
2021/04/21 02:08:42;;;;;;;7.83;7.03;;;;;;;;;;5043456;28;20230;-79
2021/04/21 02:11:15;;;;;;;7.80;6.40;;;;;;;;;;5042908;28;20231;-78
2021/04/21 02:14:10;;;;;;;7.17;6.13;;;;;;;;;;5020832;28;20224;-78
2021/04/21 02:16:46;;;;;;;9.10;7.20;;;;;;;;;;5042557;28;20718;-77
2021/04/21 02:19:37;;;;;;;7.90;6.47;;;;;;;;;;5042759;28;20227;-78
2021/04/21 02:22:15;;;;;;;7.47;6.67;;;;;;;;;;5022673;28;20701;-78
2021/04/21 02:24:51;;;;;;;8.03;6.63;;;;;;;;;;5038112;28;20219;-77
2021/04/21 02:27:26;;;;;;;9.40;6.63;;;;;;;;;;5025080;28;20235;-78
2021/04/21 02:29:58;;;;;;;7.93;7.07;;;;;;;;;;5043775;28;20257;-79
2021/04/21 02:32:33;;;;;;;7.20;6.50;;;;;;;;;;5035461;28;20601;-78
2021/04/21 02:35:06;;;;;;;6.87;6.23;;;;;;;;;;5041329;28;20228;-77
2021/04/21 02:37:36;;;;;;;7.83;6.63;;;;;;;;;;5042466;28;20234;-78
2021/04/21 02:40:11;;;;;;;7.60;6.77;;;;;;;;;;5039697;28;20234;-77
2021/04/21 02:42:43;;;;;;;6.43;5.80;;;;;;;;;;5056979;28;20692;-78
2021/04/21 02:45:19;;;;;;;8.97;6.33;;;;;;;;;;5035269;28;21682;-77
2021/04/21 02:47:49;;;;;;;7.53;6.73;;;;;;;;;;5042220;28;20222;-77
2021/04/21 02:50:21;;;;;;;8.50;6.37;;;;;;;;;;5042664;28;20232;-77
2021/04/21 02:52:57;;;;;;;6.43;5.83;;;;;;;;;;5026222;28;20227;-77
2021/04/21 02:55:36;;;;;;;7.23;6.07;;;;;;;;;;5019238;28;20727;-82
2021/04/21 02:58:08;;;;;;;7.87;6.20;;;;;;;;;;5036841;28;20231;-79
2021/04/21 03:00:43;;;;;;;7.80;6.63;;;;;;;;;;5037679;28;20247;-77
2021/04/21 03:03:18;;;;;;;6.77;6.07;;;;;;;;;;5035795;28;20233;-78
2021/04/21 03:05:48;;;;;;;8.67;6.57;;;;;;;;;;5025455;28;20220;-78
2021/04/21 03:08:20;;;;;;;7.70;6.17;;;;;;;;;;5023586;28;20227;-78
2021/04/21 03:10:54;;;;;;;7.00;6.30;;;;;;;;;;5020686;28;20223;-78
2021/04/21 03:13:23;;;;;;;6.50;5.90;;;;;;;;;;5036001;28;20688;-78
2021/04/21 03:15:54;;;;;;;6.97;6.27;;;;;;;;;;5027278;28;20227;-80
2021/04/21 03:18:23;;;;;;;6.60;5.67;;;;;;;;;;5039000;28;20617;-78
2021/04/21 03:20:55;;;;;;;7.07;6.23;;;;;;;;;;5044148;28;20226;-78
2021/04/21 03:23:25;;;;;;;7.30;6.30;;;;;;;;;;5036117;28;20239;-77
2021/04/21 03:25:55;;;;;;;7.13;6.37;;;;;;;;;;5024563;28;20242;-78
2021/04/21 03:28:24;;;;;;;10.13;6.47;;;;;;;;;;5045482;28;20220;-77
2021/04/21 03:30:57;;;;;;;7.03;6.30;;;;;;;;;;5026785;28;20593;-78
2021/04/21 03:33:28;;;;;;;6.83;6.10;;;;;;;;;;5028384;28;20227;-77
2021/04/21 03:35:58;;;;;;;8.57;6.77;;;;;;;;;;5025320;28;20666;-77
2021/04/21 03:38:26;;;;;;;7.30;6.50;;;;;;;;;;5043708;28;20250;-79
2021/04/21 03:40:54;;;;;;;7.03;6.33;;;;;;;;;;5041021;28;20234;-81
2021/04/21 03:43:22;;;;;;;8.00;7.20;;;;;;;;;;5043700;28;20219;-79
2021/04/21 03:45:50;;;;;;;7.43;6.63;;;;;;;;;;5036503;28;20228;-77
2021/04/21 03:48:19;;;;;;;7.80;7.00;;;;;;;;;;5038679;28;20226;-82
2021/04/21 03:50:52;;;;;;;8.20;7.17;;;;;;;;;;5038353;28;20222;-77
2021/04/21 03:53:21;;;;;;;7.97;6.97;;;;;;;;;;5042063;28;20227;-78
2021/04/21 03:55:49;;;;;;;7.60;6.77;;;;;;;;;;5045951;28;20223;-79
2021/04/21 03:58:18;;;;;;;8.13;6.87;;;;;;;;;;5028991;28;20238;-77
2021/04/21 04:00:50;;;;;;;7.77;6.97;;;;;;;;;;5046416;28;20223;-77
2021/04/21 04:03:21;;;;;;;8.13;7.23;;;;;;;;;;5015127;28;20230;-78
2021/04/21 04:06:01;;;;;;;7.80;6.97;;;;;;;;;;5034535;28;20218;-78
2021/04/21 04:08:35;;;;;;;8.03;6.97;;;;;;;;;;5051726;28;20600;-78
2021/04/21 04:11:03;;;;;;;8.23;7.00;;;;;;;;;;5051708;28;20226;-78
2021/04/21 04:13:33;;;;;;;8.47;6.67;;;;;;;;;;5049389;28;20230;-77
2021/04/21 04:16:01;;;;;;;7.77;6.97;;;;;;;;;;5049644;28;20245;-82
2021/04/21 04:18:31;;;;;;;7.93;7.00;;;;;;;;;;5050607;28;20230;-77
2021/04/21 04:21:00;;;;;;;9.07;7.03;;;;;;;;;;5034992;28;20235;-76
2021/04/21 04:23:28;;;;;;;7.43;6.70;;;;;;;;;;5029219;28;20223;-79
2021/04/21 04:25:58;;;;;;;8.37;6.67;;;;;;;;;;5049224;28;20397;-78
2021/04/21 04:28:27;;;;;;;8.10;6.77;;;;;;;;;;5048116;28;20608;-77
2021/04/21 04:30:55;;;;;;;8.50;7.33;;;;;;;;;;5046516;28;20227;-78
2021/04/21 04:33:23;;;;;;;7.10;6.40;;;;;;;;;;5050566;28;20234;-77
2021/04/21 04:35:53;;;;;;;7.90;6.63;;;;;;;;;;5052068;28;20227;-77
2021/04/21 04:38:22;;;;;;;10.03;7.03;;;;;;;;;;5045762;28;20238;-78
2021/04/21 04:40:51;;;;;;;8.97;7.10;;;;;;;;;;5040738;28;20646;-78
2021/04/21 04:43:19;;;;;;;8.20;7.30;;;;;;;;;;5047386;28;20242;-78
2021/04/21 04:45:51;;;;;;;10.30;7.97;;;;;;;;;;5024411;28;20220;-78
2021/04/21 04:48:23;;;;;;;9.23;6.87;;;;;;;;;;5032215;28;20746;-77
2021/04/21 04:50:51;;;;;;;8.13;7.20;;;;;;;;;;5038288;28;20227;-79
2021/04/21 04:53:19;;;;;;;9.00;7.23;;;;;;;;;;5052443;28;20223;-77
2021/04/21 04:55:47;;;;;;;7.93;7.13;;;;;;;;;;5033781;28;20247;-80
2021/04/21 04:58:20;;;;;;;7.70;6.90;;;;;;;;;;5029219;28;20257;-77
2021/04/21 05:00:49;;;;;;;7.57;6.77;;;;;;;;;;5009368;28;20735;-78
2021/04/21 05:03:20;;;;;;;8.33;7.20;;;;;;;;;;5027240;28;20223;-78
2021/04/21 05:05:53;;;;;;;8.20;7.37;;;;;;;;;;5042132;28;20221;-77
2021/04/21 05:08:26;;;;;;;9.20;7.70;;;;;;;;;;5026843;28;20226;-78
2021/04/21 05:10:57;;;;;;;9.70;6.53;;;;;;;;;;5030393;28;20222;-78
2021/04/21 05:13:25;;;;;;;8.57;7.53;;;;;;;;;;5043705;28;20224;-77
2021/04/21 05:16:25;;;;;;;8.07;7.00;;;;;;;;;;5020550;28;20238;-78
2021/04/21 05:19:41;;;;;;;8.60;6.90;;;;;;;;;;5036334;28;20606;-79
2021/04/21 05:22:46;;;;;;;8.70;7.67;;;;;;;;;;5044055;28;20249;-77
2021/04/21 05:25:51;;;;;;;8.53;7.60;;;;;;;;;;5028209;28;20234;-77
2021/04/21 05:28:42;;;;;;;7.70;6.70;;;;;;;;;;5040995;28;20227;-83
2021/04/21 05:32:08;;;;;;;9.80;6.87;;;;;;;;;;4981938;28;20226;-77
2021/04/21 05:35:15;;;;;;;10.90;7.43;;;;;;;;;;5034444;28;20239;-77
2021/04/21 05:38:23;;;;;;;9.30;7.10;;;;;;;;;;5016873;28;20235;-78
2021/04/21 05:40:56;;;;;;;8.67;7.77;;;;;;;;;;5036070;28;20241;-77
2021/04/21 05:44:05;;;;;;;9.00;7.60;;;;;;;;;;5036501;28;20235;-77
2021/04/21 05:47:09;;;;;;;9.97;7.93;;;;;;;;;;5044555;28;20692;-77
2021/04/21 05:50:07;;;;;;;10.57;7.50;;;;;;;;;;4991111;28;20227;-77
2021/04/21 05:52:51;;;;;;;8.90;7.90;;;;;;;;;;5026466;28;20231;-83
2021/04/21 05:55:43;;;;;;;11.07;7.83;;;;;;;;;;5047009;28;20234;-82
2021/04/21 05:58:46;;;;;;;11.93;8.33;;;;;;;;;;5025011;28;20439;-79
2021/04/21 06:01:22;;;;;;;11.07;7.20;;;;;;;;;;5033507;28;20214;-79
2021/04/21 06:03:54;;;;;;;11.17;7.87;;;;;;;;;;5043007;28;20231;-77
2021/04/21 06:06:22;;;;;;;12.13;8.10;;;;;;;;;;5044887;28;20237;-81
2021/04/21 06:08:50;;;;;;;9.10;8.00;;;;;;;;;;5060120;28;20207;-78
2021/04/21 06:11:19;;;;;;;9.10;7.47;;;;;;;;;;5054732;28;20219;-79
2021/04/21 06:13:50;;;;;;;10.03;7.93;;;;;;;;;;5056079;28;20223;-78
2021/04/21 06:16:19;;;;;;;64.50;10.73;;;;;;;;;;5059463;28;20245;-81
2021/04/21 06:18:52;;;;;;;37.00;11.77;;;;;;;;;;5041540;28;20215;-81
2021/04/21 06:21:21;;;;;;;9.80;8.17;;;;;;;;;;5043976;28;20223;-78
2021/04/21 06:23:49;;;;;;;12.07;8.33;;;;;;;;;;5061570;28;20499;-78
2021/04/21 06:26:22;;;;;;;8.93;7.90;;;;;;;;;;5030535;28;20584;-77
2021/04/21 06:29:01;;;;;;;10.97;8.00;;;;;;;;;;4996394;28;20267;-79
2021/04/21 06:31:38;;;;;;;9.10;7.97;;;;;;;;;;5014974;28;20713;-77
2021/04/21 06:34:08;;;;;;;11.67;8.90;;;;;;;;;;5010680;28;20225;-77
2021/04/21 06:36:42;;;;;;;9.33;8.10;;;;;;;;;;5004306;28;20232;-77
2021/04/21 06:39:10;;;;;;;11.07;7.53;;;;;;;;;;5007822;28;20236;-79
2021/04/21 06:41:38;;;;;;;7.40;6.13;;;;;;;;;;5001760;28;20233;-77
2021/04/21 06:44:06;;;;;;;12.27;6.87;;;;;;;;;;4987285;28;20225;-77
2021/04/21 06:46:33;;;;;;;7.97;6.67;;;;;;;;;;5005672;28;20653;-76
2021/04/21 06:49:03;;;;;;;9.00;6.50;;;;;;;;;;5018051;28;20251;-77
2021/04/21 06:51:33;;;;;;;9.27;7.20;;;;;;;;;;5021635;28;20635;-77
2021/04/21 06:54:01;;;;;;;10.53;6.90;;;;;;;;;;5019969;28;20610;-76
2021/04/21 06:56:31;;;;;;;11.37;7.00;;;;;;;;;;5018221;28;20222;-77
2021/04/21 06:58:59;;;;;;;9.50;7.40;;;;;;;;;;5024525;28;20256;-76
2021/04/21 07:01:31;;;;;;;10.60;6.70;;;;;;;;;;5034351;28;20230;-76
2021/04/21 07:04:16;;;;;;;8.30;6.70;;;;;;;;;;5010384;28;20248;-77
2021/04/21 07:06:49;;;;;;;8.33;7.00;;;;;;;;;;5011208;28;20302;-76
2021/04/21 07:09:18;;;;;;;7.87;6.43;;;;;;;;;;5018015;28;20596;-76
2021/04/21 07:11:50;;;;;;;8.70;6.70;;;;;;;;;;5033995;28;20230;-77
2021/04/21 07:14:19;;;;;;;9.27;6.57;;;;;;;;;;5019831;28;20216;-76
2021/04/21 07:16:52;;;;;;;7.67;6.10;;;;;;;;;;5034847;28;20216;-76
2021/04/21 07:19:21;;;;;;;9.87;6.10;;;;;;;;;;5031444;28;20238;-76
2021/04/21 07:21:50;;;;;;;8.73;6.80;;;;;;;;;;5030459;28;20234;-76
2021/04/21 07:24:19;;;;;;;13.20;6.70;;;;;;;;;;5030238;28;20242;-76
2021/04/21 07:26:50;;;;;;;8.70;6.70;;;;;;;;;;5036936;28;20220;-74
2021/04/21 07:29:19;;;;;;;10.17;6.87;;;;;;;;;;5044874;28;20230;-79
2021/04/21 07:31:50;;;;;;;9.43;6.50;;;;;;;;;;5024328;28;20233;-77
2021/04/21 07:34:30;;;;;;;10.33;7.03;;;;;;;;;;5000765;28;20250;-76
2021/04/21 07:36:59;;;;;;;8.87;7.10;;;;;;;;;;5027697;28;20720;-76
2021/04/21 07:39:31;;;;;;;8.50;6.93;;;;;;;;;;5034535;28;20233;-77
2021/04/21 07:42:00;;;;;;;12.83;7.10;;;;;;;;;;5034479;28;20228;-79
2021/04/21 07:44:30;;;;;;;9.60;7.13;;;;;;;;;;5032080;28;20235;-76
2021/04/21 07:47:11;;;;;;;10.57;7.83;;;;;;;;;;5017458;28;20246;-77
2021/04/21 07:49:40;;;;;;;8.60;7.40;;;;;;;;;;5014493;28;20238;-77
2021/04/21 07:52:08;;;;;;;9.63;7.00;;;;;;;;;;5019126;28;20309;-77
2021/04/21 07:54:38;;;;;;;9.00;7.57;;;;;;;;;;5024081;28;20223;-76
2021/04/21 07:57:11;;;;;;;10.17;8.03;;;;;;;;;;5043306;28;20581;-76
2021/04/21 07:59:40;;;;;;;12.17;8.20;;;;;;;;;;5035421;28;20224;-76
2021/04/21 08:02:10;;;;;;;18.47;8.23;;;;;;;;;;5041500;28;20727;-77
2021/04/21 08:04:49;;;;;;;10.40;8.13;;;;;;;;;;5015703;28;20701;-78
2021/04/21 08:07:33;;;;;;;9.70;8.10;;;;;;;;;;5038891;28;20261;-78
2021/04/21 08:10:03;;;;;;;10.80;8.63;;;;;;;;;;5029205;28;20258;-77
2021/04/21 08:12:32;;;;;;;12.67;7.87;;;;;;;;;;5029236;28;20582;-77
2021/04/21 08:15:01;;;;;;;12.17;8.40;;;;;;;;;;5029858;28;20242;-77
2021/04/21 08:17:29;;;;;;;12.07;8.13;;;;;;;;;;5035171;28;20224;-78
2021/04/21 08:19:59;;;;;;;11.97;8.07;;;;;;;;;;5035602;28;20223;-76
2021/04/21 08:22:30;;;;;;;10.33;7.90;;;;;;;;;;5037352;28;20843;-77
2021/04/21 08:24:58;;;;;;;8.80;7.50;;;;;;;;;;5032664;28;20219;-77
2021/04/21 08:27:26;;;;;;;10.50;8.30;;;;;;;;;;5039196;28;20243;-78
2021/04/21 08:29:58;;;;;;;8.30;6.90;;;;;;;;;;5035030;28;20239;-77
2021/04/21 08:32:27;;;;;;;10.10;8.10;;;;;;;;;;5037490;28;20235;-77
2021/04/21 08:34:55;;;;;;;10.80;7.90;;;;;;;;;;5032201;28;20598;-77
2021/04/21 08:37:23;;;;;;;11.43;8.60;;;;;;;;;;5040601;28;20238;-78
2021/04/21 08:39:51;;;;;;;11.93;8.30;;;;;;;;;;5037205;28;20238;-77
2021/04/21 08:42:19;;;;;;;10.77;8.50;;;;;;;;;;5031469;28;20227;-78
2021/04/21 08:44:48;;;;;;;11.70;8.20;;;;;;;;;;5031507;28;20222;-78
2021/04/21 08:47:17;;;;;;;11.93;9.37;;;;;;;;;;5020536;28;20842;-78
2021/04/21 08:49:45;;;;;;;12.50;9.47;;;;;;;;;;5032697;28;20234;-77
2021/04/21 08:52:16;;;;;;;11.17;9.00;;;;;;;;;;5035303;28;20255;-78
2021/04/21 08:54:47;;;;;;;10.37;8.53;;;;;;;;;;5022890;28;20227;-77
2021/04/21 08:57:15;;;;;;;12.13;8.20;;;;;;;;;;5018239;28;20685;-77
2021/04/21 08:59:43;;;;;;;11.53;8.40;;;;;;;;;;5040224;28;20219;-77
2021/04/21 09:02:12;;;;;;;9.93;8.73;;;;;;;;;;5038604;28;20739;-78
2021/04/21 09:04:40;;;;;;;11.83;8.77;;;;;;;;;;5036971;28;20231;-77
2021/04/21 09:07:07;;;;;;;10.27;8.80;;;;;;;;;;5023335;28;20596;-79
2021/04/21 09:09:35;;;;;;;10.20;8.53;;;;;;;;;;5026972;28;20243;-80
2021/04/21 09:12:03;;;;;;;14.70;9.00;;;;;;;;;;5022715;28;20418;-78
2021/04/21 09:14:32;;;;;;;10.97;8.40;;;;;;;;;;5039044;28;20764;-77
2021/04/21 09:17:00;;;;;;;11.53;8.97;;;;;;;;;;5037300;28;20224;-77
2021/04/21 09:19:27;;;;;;;11.03;8.53;;;;;;;;;;5019959;28;20234;-77
2021/04/21 09:22:06;;;;;;;12.20;9.67;;;;;;;;;;5035031;28;20223;-77
2021/04/21 09:24:37;;;;;;;12.80;9.37;;;;;;;;;;5031834;28;20593;-78
2021/04/21 09:27:31;;;;;;;11.03;8.50;;;;;;;;;;5020992;28;20223;-78
2021/04/21 09:30:13;;;;;;;9.67;8.30;;;;;;;;;;5030479;28;20719;-79
2021/04/21 09:32:46;;;;;;;10.03;8.37;;;;;;;;;;5034021;28;20735;-77
2021/04/21 09:35:19;;;;;;;10.23;8.07;;;;;;;;;;5032347;28;20250;-78
2021/04/21 09:37:47;;;;;;;9.90;8.00;;;;;;;;;;5034202;28;20239;-77
2021/04/21 09:40:32;;;;;;;9.57;8.10;;;;;;;;;;5031087;28;20230;-78
2021/04/21 09:43:00;;;;;;;7.87;6.40;;;;;;;;;;5029512;28;20232;-77
2021/04/21 09:45:38;;;;;;;11.73;7.53;;;;;;;;;;5039252;28;20230;-80
2021/04/21 09:48:08;;;;;;;10.23;8.67;;;;;;;;;;5033603;28;20223;-77
2021/04/21 09:50:37;;;;;;;8.47;7.67;;;;;;;;;;5035198;28;20223;-77
2021/04/21 09:53:22;;;;;;;10.27;7.83;;;;;;;;;;5033909;28;20220;-77
2021/04/21 09:56:07;;;;;;;9.97;7.73;;;;;;;;;;5028265;28;20220;-77
2021/04/21 09:58:38;;;;;;;10.20;7.77;;;;;;;;;;5035266;28;20226;-78
2021/04/21 10:01:23;;;;;;;10.77;7.07;;;;;;;;;;5036964;28;20226;-77
2021/04/21 10:04:12;;;;;;;9.90;8.07;;;;;;;;;;5032212;28;20732;-78
2021/04/21 10:06:42;;;;;;;11.10;7.00;;;;;;;;;;5051531;28;20219;-79
2021/04/21 10:09:24;;;;;;;8.30;7.50;;;;;;;;;;5036123;28;20232;-78
2021/04/21 10:11:54;;;;;;;8.13;7.13;;;;;;;;;;5038016;28;20222;-79
2021/04/21 10:14:24;;;;;;;10.93;7.50;;;;;;;;;;5041869;28;20223;-77
2021/04/21 10:16:53;;;;;;;7.90;7.10;;;;;;;;;;5038800;28;20226;-78
2021/04/21 10:19:20;;;;;;;11.73;9.47;;;;;;;;;;5039808;28;20258;-78
2021/04/21 10:21:49;;;;;;;9.43;7.20;;;;;;;;;;5020288;28;20227;-79
2021/04/21 10:24:16;;;;;;;8.33;7.53;;;;;;;;;;5031741;28;20832;-78
2021/04/21 10:26:44;;;;;;;8.97;7.57;;;;;;;;;;5052592;28;20224;-78
2021/04/21 10:29:11;;;;;;;7.83;7.03;;;;;;;;;;5036335;28;20282;-78
2021/04/21 10:31:39;;;;;;;7.10;6.40;;;;;;;;;;5039180;28;20764;-78
2021/04/21 10:34:08;;;;;;;9.45;8.10;;;;;;;;;;5035321;28;20235;-75
2021/04/21 10:36:36;;;;;;;9.13;8.23;;;;;;;;;;5023425;28;20238;-76
2021/04/21 10:39:05;;;;;;;8.63;7.72;;;;;;;;;;5035884;28;20228;-77
2021/04/21 10:41:35;;;;;;;8.80;7.90;;;;;;;;;;5039448;28;20232;-76
2021/04/21 10:44:11;;;;;;;7.97;7.18;;;;;;;;;;5036184;28;20239;-76
2021/04/21 10:46:58;;;;;;;8.18;7.38;;;;;;;;;;5040877;28;20681;-76
2021/04/21 10:49:41;;;;;;;10.05;7.30;;;;;;;;;;5029955;28;20234;-76
2021/04/21 10:52:14;;;;;;;7.47;6.65;;;;;;;;;;5035952;28;20595;-76
2021/04/21 10:54:42;;;;;;;7.40;6.65;;;;;;;;;;5040259;28;20611;-76
2021/04/21 10:57:31;;;;;;;8.07;7.28;;;;;;;;;;5042772;28;20223;-77
2021/04/21 11:00:10;;;;;;;9.13;7.82;;;;;;;;;;5045194;28;20238;-76
2021/04/21 11:02:58;;;;;;;7.60;6.63;;;;;;;;;;5041388;28;20226;-75
2021/04/21 11:05:44;;;;;;;7.63;6.93;;;;;;;;;;5039303;28;20713;-76
2021/04/21 11:08:15;;;;;;;7.05;6.35;;;;;;;;;;5020757;28;20243;-76
2021/04/21 11:10:55;;;;;;;6.80;6.20;;;;;;;;;;5043061;28;20737;-76
2021/04/21 11:13:43;;;;;;;6.70;6.10;;;;;;;;;;5034069;28;20226;-76
2021/04/21 11:16:40;;;;;;;6.72;6.13;;;;;;;;;;5008718;28;20243;-76
2021/04/21 11:19:32;;;;;;;5.90;5.40;;;;;;;;;;5006783;28;20227;-76
2021/04/21 11:22:20;;;;;;;9.07;8.20;;;;;;;;;;5018799;28;20232;-76
2021/04/21 11:25:19;;;;;;;6.30;5.70;;;;;;;;;;5031361;28;20223;-76
2021/04/21 11:27:47;;;;;;;6.70;6.10;;;;;;;;;;5033082;28;20222;-76
2021/04/21 11:30:53;;;;;;;5.90;5.40;;;;;;;;;;5035936;28;20247;-75
2021/04/21 11:33:49;;;;;;;6.05;4.80;;;;;;;;;;5029814;28;20427;-77
2021/04/21 11:36:41;;;;;;;5.97;5.38;;;;;;;;;;5021798;28;20219;-77
2021/04/21 11:39:11;;;;;;;5.00;4.55;;;;;;;;;;5038272;28;20231;-77
2021/04/21 11:41:48;;;;;;;5.15;4.65;;;;;;;;;;5051936;28;20223;-77
2021/04/21 11:44:54;;;;;;;5.25;4.60;;;;;;;;;;5028545;28;20227;-78
2021/04/21 11:47:29;;;;;;;5.15;4.68;;;;;;;;;;5047372;28;20732;-76
2021/04/21 11:50:12;;;;;;;6.20;5.13;;;;;;;;;;5025093;28;20243;-76
2021/04/21 11:52:44;;;;;;;6.20;5.70;;;;;;;;;;5035975;28;20232;-75
2021/04/21 11:55:25;;;;;;;6.50;5.57;;;;;;;;;;5037545;28;20840;-76
2021/04/21 11:57:56;;;;;;;6.88;6.18;;;;;;;;;;5034266;28;20228;-76
2021/04/21 12:00:27;;;;;;;6.53;6.00;;;;;;;;;;5042381;28;20235;-76
2021/04/21 12:02:55;;;;;;;6.85;6.25;;;;;;;;;;5031881;28;20235;-76
2021/04/21 12:05:29;;;;;;;6.80;6.20;;;;;;;;;;5042899;28;20232;-77
2021/04/21 12:07:57;;;;;;;6.13;5.63;;;;;;;;;;5024650;28;20219;-76
2021/04/21 12:10:30;;;;;;;6.13;5.53;;;;;;;;;;5037581;28;20235;-77
2021/04/21 12:13:14;;;;;;;6.40;5.70;;;;;;;;;;5023331;28;20231;-77
2021/04/21 12:15:42;;;;;;;5.72;5.22;;;;;;;;;;5039731;28;20232;-77
2021/04/21 12:18:10;;;;;;;5.75;5.35;;;;;;;;;;5038568;28;20223;-77
2021/04/21 12:20:38;;;;;;;5.85;5.35;;;;;;;;;;5035351;28;20242;-77
2021/04/21 12:23:06;;;;;;;5.72;5.20;;;;;;;;;;5026607;28;20223;-77
2021/04/21 12:25:34;;;;;;;6.38;5.88;;;;;;;;;;5039692;28;20587;-76
2021/04/21 12:28:03;;;;;;;7.10;6.38;;;;;;;;;;5036893;28;20232;-77
2021/04/21 12:30:32;;;;;;;6.45;5.85;;;;;;;;;;5036587;28;20242;-77
2021/04/21 12:33:12;;;;;;;6.10;5.50;;;;;;;;;;5042133;28;20235;-77
2021/04/21 12:35:41;;;;;;;5.63;4.80;;;;;;;;;;5039077;28;20223;-77
2021/04/21 12:38:09;;;;;;;6.28;5.68;;;;;;;;;;5028954;28;20235;-77
2021/04/21 12:40:38;;;;;;;6.38;5.88;;;;;;;;;;5032436;28;20228;-77
2021/04/21 12:43:13;;;;;;;6.30;5.72;;;;;;;;;;5033083;28;20223;-77
2021/04/21 12:45:43;;;;;;;5.68;5.25;;;;;;;;;;5033690;28;20216;-76
2021/04/21 12:48:21;;;;;;;5.35;4.85;;;;;;;;;;5033415;28;25901;-76
2021/04/21 12:50:50;;;;;;;5.47;4.90;;;;;;;;;;5051680;28;20231;-76
2021/04/21 12:53:19;;;;;;;5.30;4.80;;;;;;;;;;5031008;28;20696;-75
2021/04/21 12:55:48;;;;;;;6.03;5.55;;;;;;;;;;5034532;28;20223;-76
2021/04/21 12:58:31;;;;;;;5.18;4.78;;;;;;;;;;5037684;28;20239;-77
2021/04/21 13:01:09;;;;;;;5.78;5.30;;;;;;;;;;5048110;28;20724;-76
2021/04/21 13:03:37;;;;;;;5.25;4.75;;;;;;;;;;5050272;28;20744;-77
2021/04/21 13:06:05;;;;;;;5.70;4.97;;;;;;;;;;5046843;28;20224;-77
2021/04/21 13:08:33;;;;;;;6.10;4.30;;;;;;;;;;5046455;28;20227;-77
2021/04/21 13:11:03;;;;;;;4.50;4.20;;;;;;;;;;5031211;28;20238;-78
2021/04/21 13:13:36;;;;;;;3.92;3.60;;;;;;;;;;5025464;28;20226;-77
2021/04/21 13:16:04;;;;;;;5.30;4.80;;;;;;;;;;5042979;28;20612;-77
2021/04/21 13:18:35;;;;;;;4.97;4.57;;;;;;;;;;5043750;28;20235;-77
2021/04/21 13:21:07;;;;;;;4.75;4.00;;;;;;;;;;5041651;28;20732;-77
2021/04/21 13:23:35;;;;;;;4.43;4.13;;;;;;;;;;5017043;28;20227;-76
2021/04/21 13:26:05;;;;;;;5.55;5.03;;;;;;;;;;5029152;28;20263;-77
2021/04/21 13:28:34;;;;;;;7.03;5.20;;;;;;;;;;5040025;28;20727;-77
2021/04/21 13:31:09;;;;;;;5.72;4.85;;;;;;;;;;5040583;28;20223;-77
2021/04/21 13:33:38;;;;;;;5.97;5.47;;;;;;;;;;5043303;28;20229;-77
2021/04/21 13:36:08;;;;;;;5.35;4.95;;;;;;;;;;5040242;28;20700;-77
2021/04/21 13:38:36;;;;;;;5.15;4.50;;;;;;;;;;5036634;28;20230;-77
2021/04/21 13:41:05;;;;;;;6.10;5.50;;;;;;;;;;5032406;28;20246;-78
2021/04/21 13:43:32;;;;;;;5.47;4.97;;;;;;;;;;5044749;28;20609;-77
2021/04/21 13:46:00;;;;;;;5.72;5.15;;;;;;;;;;5044454;28;20239;-78
2021/04/21 13:48:30;;;;;;;5.63;5.20;;;;;;;;;;5045821;28;20239;-77
2021/04/21 13:50:58;;;;;;;4.18;3.85;;;;;;;;;;5026402;28;20616;-77
2021/04/21 13:53:25;;;;;;;4.95;4.55;;;;;;;;;;5048622;28;20223;-77
2021/04/21 13:55:52;;;;;;;4.95;4.40;;;;;;;;;;5024559;28;20230;-78
2021/04/21 13:58:21;;;;;;;5.03;4.45;;;;;;;;;;5031294;28;20227;-78
2021/04/21 14:00:49;;;;;;;4.82;4.15;;;;;;;;;;5043175;28;20234;-77
2021/04/21 14:03:16;;;;;;;6.30;4.63;;;;;;;;;;5031582;28;20235;-77
2021/04/21 14:05:44;;;;;;;5.47;4.97;;;;;;;;;;5019893;28;20220;-78
2021/04/21 14:08:11;;;;;;;5.32;4.93;;;;;;;;;;5015870;28;20232;-78
2021/04/21 14:10:39;;;;;;;5.97;5.35;;;;;;;;;;5016756;28;20236;-78
2021/04/21 14:13:08;;;;;;;5.53;5.03;;;;;;;;;;5021398;28;20243;-78
2021/04/21 14:15:36;;;;;;;5.25;4.82;;;;;;;;;;5018109;28;20239;-78
2021/04/21 14:18:05;;;;;;;5.20;4.80;;;;;;;;;;5011461;28;20240;-78
2021/04/21 14:20:32;;;;;;;5.53;5.03;;;;;;;;;;5020165;28;20614;-77
2021/04/21 14:23:00;;;;;;;5.53;5.13;;;;;;;;;;5015867;28;20244;-78
2021/04/21 14:25:27;;;;;;;40.42;8.80;;;;;;;;;;5049252;28;20223;-78
2021/04/21 14:27:54;;;;;;;30.40;10.27;;;;;;;;;;5045565;28;20230;-77
2021/04/21 14:30:23;;;;;;;6.05;5.45;;;;;;;;;;5041866;28;20683;-78
2021/04/21 14:32:51;;;;;;;5.90;5.40;;;;;;;;;;5044024;28;20615;-78
2021/04/21 14:35:19;;;;;;;8.60;5.60;;;;;;;;;;5044552;28;20227;-78
2021/04/21 14:37:46;;;;;;;5.70;5.20;;;;;;;;;;5043307;28;20219;-78
2021/04/21 14:40:15;;;;;;;5.70;5.20;;;;;;;;;;5045572;28;20216;-78
2021/04/21 14:42:43;;;;;;;5.97;5.45;;;;;;;;;;5046247;28;20228;-78
2021/04/21 14:45:12;;;;;;;4.75;4.35;;;;;;;;;;5041740;28;20280;-77
2021/04/21 14:47:40;;;;;;;6.00;5.50;;;;;;;;;;5046701;28;20231;-77
2021/04/21 14:50:10;;;;;;;4.57;4.28;;;;;;;;;;5042253;28;20232;-77
2021/04/21 14:52:38;;;;;;;5.15;4.50;;;;;;;;;;5044545;28;20227;-77
2021/04/21 14:55:07;;;;;;;5.13;4.72;;;;;;;;;;5043293;28;20614;-77
2021/04/21 14:57:34;;;;;;;4.68;4.28;;;;;;;;;;5040094;28;20227;-77
2021/04/21 15:00:03;;;;;;;5.03;4.32;;;;;;;;;;5046213;28;20227;-77
2021/04/21 15:02:30;;;;;;;4.65;4.30;;;;;;;;;;5024859;28;20697;-77
2021/04/21 15:04:58;;;;;;;4.45;4.15;;;;;;;;;;5035542;28;20228;-77
2021/04/21 15:07:27;;;;;;;5.18;4.82;;;;;;;;;;5048000;28;20232;-77
2021/04/21 15:09:54;;;;;;;6.68;4.60;;;;;;;;;;5034769;28;20228;-78
2021/04/21 15:12:22;;;;;;;4.93;4.53;;;;;;;;;;5035600;28;20234;-77
2021/04/21 15:14:51;;;;;;;4.80;4.35;;;;;;;;;;5043410;28;20219;-76
2021/04/21 15:17:19;;;;;;;5.50;5.00;;;;;;;;;;5022085;28;20604;-77